Time;durP1;ratioP1;P1;durP2;ratioP2;P2;SDS_P1;SDS_P2;PMS_P1;PMS_P2;Temp;Humidity;BMP_temperature;BMP_pressure;BME280_temperature;BME280_humidity;BME280_pressure;Samples;Min_cycle;Max_cycle;Signal;HPM_P1;HPM_P2
2022/01/25 06:24:53;;;;;;;;;;;;;;;0.79;81.57;101218.38;5696787;23;20376;-87
2022/01/25 06:27:19;;;;;;;;;;;;;;;0.78;81.32;101211.41;5008494;28;19922;-86
2022/01/25 06:29:45;;;;;;;;;;;;;;;0.77;81.35;101223.56;5007555;28;19921;-87
2022/01/25 06:32:10;;;;;;;;;;;;;;;0.72;81.22;101225.22;4987385;28;19922;-88
2022/01/25 06:34:35;;;;;;;;;;;;;;;0.69;81.09;101215.59;5003643;28;19940;-89
2022/01/25 06:37:00;;;;;;;;;;;;;;;0.71;80.93;101216.50;5004405;28;19921;-87
2022/01/25 06:39:26;;;;;;;;;;;;;;;0.67;81.03;101213.78;5003367;28;20864;-89
2022/01/25 06:41:51;;;;;;;;;;;;;;;0.65;80.96;101212.88;4989745;28;20379;-87
2022/01/25 06:44:17;;;;;;;;;;;;;;;0.64;81.06;101213.72;4989197;28;19918;-93
2022/01/25 06:46:42;;;;;;;;;;;;;;;0.65;81.24;101213.75;5008332;28;19918;-89
2022/01/25 06:49:07;;;;;;;;;;;;;;;0.64;80.90;101218.94;5011762;28;19962;-87
2022/01/25 06:51:33;;;;;;;;;;;;;;;0.60;80.73;101209.31;5007299;28;20269;-91
2022/01/25 06:53:58;;;;;;;;;;;;;;;0.57;80.61;101206.63;5002536;28;19969;-87
2022/01/25 06:56:23;;;;;;;;;;;;;;;0.56;80.71;101207.47;5005371;28;20008;-93
2022/01/25 06:58:48;;;;;;;;;;;;;;;0.56;80.72;101215.28;5004708;28;19922;-87
2022/01/25 07:01:14;;;;;;;;;;;;;;;0.52;80.69;101216.97;4986389;28;20035;-87
2022/01/25 07:03:39;;;;;;;;;;;;;;;0.48;80.72;101217.72;5005847;28;20385;-87
2022/01/25 07:06:04;;;;;;;;;;;;;;;0.53;80.52;101216.13;5004742;28;19917;-94
2022/01/25 07:08:30;;;;;;;;;;;;;;;0.47;80.68;101213.38;5003096;28;19944;-86
2022/01/25 07:10:55;;;;;;;;;;;;;;;0.50;80.54;101218.66;4984860;28;19979;-91
2022/01/25 07:13:20;;;;;;;;;;;;;;;0.63;83.53;101218.06;5003431;28;19931;-93
2022/01/25 07:15:45;;;;;;;;;;;;;;;0.81;86.40;101220.16;5006016;28;19921;-95
2022/01/25 07:18:11;;;;;;;;;;;;;;;0.79;87.49;101214.03;5004561;28;19981;-86
2022/01/25 07:20:36;;;;;;;;;;;;;;;0.85;88.75;101208.06;4986551;28;19918;-88
2022/01/25 07:23:01;;;;;;;;;;;;;;;1.19;92.87;101219.16;4986967;28;20386;-87
2022/01/25 07:25:27;;;;;;;;;;;;;;;1.46;95.42;101216.16;5003306;28;19932;-91
2022/01/25 07:27:53;;;;;;;;;;;;;;;1.60;96.93;101216.38;4985575;28;19944;-85
2022/01/25 07:30:18;;;;;;;;;;;;;;;1.47;96.86;101220.53;4994279;28;20376;-95
2022/01/25 07:32:43;;;;;;;;;;;;;;;1.33;96.62;101211.56;4988541;28;19957;-86
2022/01/25 07:35:08;;;;;;;;;;;;;;;1.26;96.41;101229.75;5009440;28;20000;-88
2022/01/25 07:37:34;;;;;;;;;;;;;;;1.22;96.09;101225.28;5010257;28;20254;-92
2022/01/25 07:39:59;;;;;;;;;;;;;;;1.15;95.59;101233.88;5002444;28;19945;-92
2022/01/25 07:42:27;;;;;;;;;;;;;;;1.08;95.22;101226.78;4987642;28;19921;-85
2022/01/25 07:44:52;;;;;;;;;;;;;;;1.02;94.87;101227.56;4986891;28;19921;-92
2022/01/25 07:47:17;;;;;;;;;;;;;;;0.97;94.45;101228.31;5004618;28;19921;-85
2022/01/25 07:49:43;;;;;;;;;;;;;;;0.98;94.03;101222.25;4986646;28;19953;-90
2022/01/25 07:52:08;;;;;;;;;;;;;;;0.94;93.64;101226.50;5002948;28;19918;-85
2022/01/25 07:54:33;;;;;;;;;;;;;;;0.92;93.46;101233.44;5002481;28;19917;-85
2022/01/25 07:56:59;;;;;;;;;;;;;;;0.87;92.98;101235.06;5003552;28;20036;-84
2022/01/25 07:59:24;;;;;;;;;;;;;;;0.85;92.67;101240.25;5003167;28;19917;-85
2022/01/25 08:01:51;;;;;;;;;;;;;;;0.84;92.37;101235.00;5003675;28;19918;-91
2022/01/25 08:04:16;;;;;;;;;;;;;;;0.80;92.17;101230.56;5001937;28;20362;-88
2022/01/25 08:06:42;;;;;;;;;;;;;;;0.80;91.99;101236.69;4985310;28;19914;-92
2022/01/25 08:09:08;;;;;;;;;;;;;;;0.81;91.49;101237.56;5000588;28;19928;-87
2022/01/25 08:11:33;;;;;;;;;;;;;;;0.78;91.37;101242.72;5002715;28;19925;-91
2022/01/25 08:14:12;;;;;;;;;;;;;;;0.72;91.07;101236.53;4984682;28;19926;-84
2022/01/25 08:16:42;;;;;;;;;;;;;;;0.76;90.62;101234.84;5001944;28;19932;-85
2022/01/25 08:19:07;;;;;;;;;;;;;;;0.71;90.33;101239.09;5001994;28;19918;-88
2022/01/25 08:21:33;;;;;;;;;;;;;;;0.71;90.04;101236.50;5002529;28;19924;-84
2022/01/25 08:49:20;;;;;;;;;;;;;;;0.63;87.02;101253.72;4972863;28;19933;-87
2022/01/25 08:51:48;;;;;;;;;;;;;;;0.61;86.72;101245.84;4975478;28;19922;-88
2022/01/25 08:54:13;;;;;;;;;;;;;;;0.60;86.45;101249.31;4974491;28;19945;-92
2022/01/25 08:56:41;;;;;;;;;;;;;;;0.61;86.21;101250.22;4974370;28;20373;-94
2022/01/25 08:59:06;;;;;;;;;;;;;;;0.57;86.06;101249.25;4973840;28;19918;-90
2022/01/25 09:01:31;;;;;;;;;;;;;;;0.57;85.91;101254.47;4973456;28;19918;-87
2022/01/25 09:03:56;;;;;;;;;;;;;;;0.57;85.74;101253.59;4976938;28;20338;-86
2022/01/25 09:06:22;;;;;;;;;;;;;;;0.58;85.49;101250.13;4959210;28;19929;-87
2022/01/25 09:08:49;;;;;;;;;;;;;;;0.58;85.28;101255.34;4976067;28;20573;-85
2022/01/25 09:11:14;;;;;;;;;;;;;;;0.58;85.07;101250.13;4976131;28;19973;-87
2022/01/25 09:13:39;;;;;;;;;;;;;;;2.72;83.67;101240.66;4976368;28;19922;-89
2022/01/25 09:16:06;;;;;;;;;;;;;;;1.98;84.13;101244.88;4974489;28;20528;-88
2022/01/25 09:18:32;;;;;;;;;;;;;;;3.37;82.96;101239.66;4975730;28;19918;-88
2022/01/25 09:20:57;;;;;;;;;;;;;;;3.69;80.91;101241.69;4975772;28;20037;-84
2022/01/25 09:23:23;;;;;;;;;;;;;;;4.19;80.58;101235.94;4975464;28;19922;-80
2022/01/25 09:25:49;;;;;;;;;;;;;;;4.39;79.70;101236.91;4974839;28;19918;-79
2022/01/25 09:28:14;;;;;;;;;;;;;;;4.49;80.12;101236.13;4975343;28;19980;-79
2022/01/25 09:30:40;;;;;;;;;;;;;;;3.65;81.44;101234.66;4974678;28;20025;-89
2022/01/25 09:33:05;;;;;;;;;;;;;;;3.57;83.76;101238.94;4973509;28;19997;-80
2022/01/25 09:35:31;;;;;;;;;;;;;;;3.61;85.13;101240.75;4975482;28;20068;-81
2022/01/25 09:37:56;;;;;;;;;;;;;;;2.85;86.32;101249.56;4975500;28;19918;-88
2022/01/25 09:40:21;;;;;;;;;;;;;;;2.53;87.45;101247.41;4957904;28;19926;-88
2022/01/25 09:42:51;;;;;;;;;;;;;;;2.32;87.87;101246.25;4975171;28;19921;-88
2022/01/25 09:45:20;;;;;;;;;;;;;;;2.28;88.02;101249.69;4957573;28;20053;-90
2022/01/25 09:47:45;;;;;;;;;;;;;;;2.15;87.54;101252.97;4960110;28;19926;-87
2022/01/25 09:50:11;;;;;;;;;;;;;;;2.06;87.28;101252.81;4967663;28;20381;-87
2022/01/25 09:52:45;;;;;;;;;;;;;;;2.00;86.97;101246.63;4984816;28;20069;-89
2022/01/25 09:55:12;;;;;;;;;;;;;;;1.92;86.60;101253.50;4983615;28;19920;-88
2022/01/25 12:33:03;;;;;;;;;;;;;;;1.95;77.77;101221.31;4989318;28;19968;-87
2022/01/25 12:35:31;;;;;;;;;;;;;;;1.92;77.62;101218.63;4991955;28;20392;-88
2022/01/25 12:37:57;;;;;;;;;;;;;;;1.94;77.68;101220.41;4977376;28;19953;-85
2022/01/25 12:40:26;;;;;;;;;;;;;;;1.95;77.63;101211.72;4977152;28;19921;-86
2022/01/25 12:42:53;;;;;;;;;;;;;;;1.97;77.59;101212.59;4977283;28;19918;-85
2022/01/25 12:45:19;;;;;;;;;;;;;;;1.94;77.46;101217.78;4995711;28;20008;-86
2022/01/25 12:47:54;;;;;;;;;;;;;;;1.93;77.34;101210.81;4994505;28;19965;-85
2022/01/25 12:50:19;;;;;;;;;;;;;;;2.02;77.78;101207.44;4995484;28;20357;-87
2022/01/25 12:52:45;;;;;;;;;;;;;;;2.35;80.28;101214.03;4995534;28;19957;-87
2022/01/25 12:55:11;;;;;;;;;;;;;;;2.49;83.05;101206.34;4995399;28;20685;-86
2022/01/25 12:57:36;;;;;;;;;;;;;;;2.56;85.23;101204.72;4977625;28;19922;-87
2022/01/25 13:00:03;;;;;;;;;;;;;;;2.57;86.87;101204.72;4995217;28;20381;-87
2022/01/25 13:02:29;;;;;;;;;;;;;;;2.63;88.14;101204.81;4975271;28;19917;-88
2022/01/25 13:04:54;;;;;;;;;;;;;;;2.66;89.46;101198.72;4994593;28;20399;-87
2022/01/25 13:07:20;;;;;;;;;;;;;;;2.67;90.49;101206.59;4995294;28;19918;-86
2022/01/25 13:09:47;;;;;;;;;;;;;;;2.66;91.47;101198.72;4995054;28;19922;-86
2022/01/25 13:12:24;;;;;;;;;;;;;;;2.66;92.83;101193.47;4977405;28;19924;-86
2022/01/25 13:15:02;;;;;;;;;;;;;;;2.66;94.10;101193.47;4994892;28;20111;-86
2022/01/25 13:17:28;;;;;;;;;;;;;;;2.67;95.50;101185.63;4976192;28;19944;-87
2022/01/25 13:19:57;;;;;;;;;;;;;;;2.73;96.58;101184.84;4995171;28;20361;-88
2022/01/25 13:22:26;;;;;;;;;;;;;;;2.78;98.07;101184.91;4994901;28;19961;-88
2022/01/25 13:27:47;;;;;;;;;;;;;;;3.15;100.00;101177.44;4994067;28;20330;-88
2022/01/25 13:32:58;;;;;;;;;;;;;;;3.42;100.00;101176.81;4994129;28;19972;-88
2022/01/25 13:35:28;;;;;;;;;;;;;;;3.55;100.00;101178.66;4994039;28;19940;-84
2022/01/25 13:38:03;;;;;;;;;;;;;;;3.60;100.00;101171.69;4994674;28;19922;-86
2022/01/25 13:40:37;;;;;;;;;;;;;;;3.67;100.00;101162.16;4976297;28;20431;-87
2022/01/25 13:43:31;;;;;;;;;;;;;;;3.73;100.00;101172.66;4994461;28;20270;-87
2022/01/25 13:45:57;;;;;;;;;;;;;;;3.80;100.00;101168.38;4975526;28;20289;-86
2022/01/25 13:48:24;;;;;;;;;;;;;;;3.87;100.00;101169.28;4994095;28;19921;-85
2022/01/25 13:51:03;;;;;;;;;;;;;;;3.89;100.00;101163.16;4994058;28;19933;-87
2022/01/25 13:53:29;;;;;;;;;;;;;;;3.94;100.00;101161.47;4976107;28;19918;-86
2022/01/25 13:55:55;;;;;;;;;;;;;;;3.99;100.00;101148.38;4994147;28;20004;-87
2022/01/25 13:58:22;;;;;;;;;;;;;;;4.04;100.00;101149.28;4994419;28;19925;-86
2022/01/25 14:00:48;;;;;;;;;;;;;;;4.07;100.00;101151.94;4975103;28;19922;-85
2022/01/25 14:03:15;;;;;;;;;;;;;;;4.09;100.00;101154.56;4993952;28;19922;-85
2022/01/25 14:05:41;;;;;;;;;;;;;;;4.11;100.00;101156.31;4976432;28;19945;-87
2022/01/25 14:08:06;;;;;;;;;;;;;;;4.16;100.00;101149.34;4976302;28;19918;-88
2022/01/25 14:10:31;;;;;;;;;;;;;;;4.22;100.00;101156.38;4993971;28;20002;-87
2022/01/25 14:23:55;;;;;;;;;;;;;;;4.36;100.00;101159.94;4994197;28;19929;-87
2022/01/25 14:26:26;;;;;;;;;;;;;;;4.14;100.00;101168.56;4993159;28;19918;-86
2022/01/25 14:28:54;;;;;;;;;;;;;;;3.34;100.00;101168.88;4992885;28;19965;-86
2022/01/25 14:31:20;;;;;;;;;;;;;;;3.05;100.00;101173.84;4992417;28;19922;-87
2022/01/25 14:33:51;;;;;;;;;;;;;;;2.80;100.00;101163.09;4993564;28;19972;-85
2022/01/25 14:36:17;;;;;;;;;;;;;;;2.72;100.00;101172.63;4993659;28;20005;-84
2022/01/25 14:38:43;;;;;;;;;;;;;;;2.65;100.00;101169.06;4993551;28;20012;-88
2022/01/25 14:41:13;;;;;;;;;;;;;;;2.51;100.00;101176.72;4975890;28;19913;-88
2022/01/25 14:43:57;;;;;;;;;;;;;;;2.56;99.68;101171.56;4993308;28;19972;-86
2022/01/25 14:46:27;;;;;;;;;;;;;;;2.46;98.05;101175.81;4991441;28;20395;-87
2022/01/25 14:49:16;;;;;;;;;;;;;;;2.45;97.04;101174.03;4974746;28;19914;-87
2022/01/25 14:51:49;;;;;;;;;;;;;;;2.40;95.86;101169.63;4993289;28;19961;-86
2022/01/25 14:54:19;;;;;;;;;;;;;;;2.36;94.63;101177.44;4983033;28;19921;-86
2022/01/25 14:56:51;;;;;;;;;;;;;;;2.29;93.45;101185.16;4975381;28;19944;-85
2022/01/25 14:59:25;;;;;;;;;;;;;;;2.21;92.83;101185.06;4992521;28;20389;-84
2022/01/25 15:01:53;;;;;;;;;;;;;;;2.19;92.23;101184.16;4991635;28;19918;-84
2022/01/25 15:04:18;;;;;;;;;;;;;;;2.13;91.39;101186.69;4993106;28;19929;-84
2022/01/25 15:06:46;;;;;;;;;;;;;;;2.06;90.81;101184.84;4992374;28;20245;-85
2022/01/25 15:09:13;;;;;;;;;;;;;;;2.06;89.97;101182.22;4992718;28;19929;-84
2022/01/25 15:11:39;;;;;;;;;;;;;;;2.05;89.28;101190.94;4992793;28;19922;-86
2022/01/25 15:14:09;;;;;;;;;;;;;;;2.04;88.72;101191.78;4975434;28;20013;-86
2022/01/25 15:16:34;;;;;;;;;;;;;;;1.98;88.37;101183.00;4990815;28;20312;-87
2022/01/25 15:19:00;;;;;;;;;;;;;;;1.91;88.08;101181.13;4992791;28;19925;-86
2022/01/25 15:21:25;;;;;;;;;;;;;;;1.90;87.74;101183.72;4975054;28;20284;-86
2022/01/25 15:23:51;;;;;;;;;;;;;;;1.91;87.55;101182.88;4992732;28;20063;-86
2022/01/25 15:26:18;;;;;;;;;;;;;;;1.84;87.25;101189.75;4993021;28;19922;-86
2022/01/25 15:28:47;;;;;;;;;;;;;;;1.85;86.83;101190.63;4992643;28;19918;-86
2022/01/25 15:31:14;;;;;;;;;;;;;;;1.79;86.69;101194.91;4983983;28;20016;-87
2022/01/25 15:33:39;;;;;;;;;;;;;;;1.86;86.61;101185.41;4991202;28;19921;-86
2022/01/25 15:36:06;;;;;;;;;;;;;;;1.78;85.97;101179.22;4992804;28;19918;-86
2022/01/25 15:38:32;;;;;;;;;;;;;;;1.73;86.23;101181.75;4991342;28;19922;-87
2022/01/25 15:40:59;;;;;;;;;;;;;;;1.72;85.88;101186.94;4992740;28;19922;-86
2022/01/25 15:43:26;;;;;;;;;;;;;;;1.74;85.71;101193.06;4992442;28;19918;-85
2022/01/25 15:48:20;;;;;;;;;;;;;;;1.67;85.61;101189.47;4992580;28;19928;-84
2022/01/25 15:50:45;;;;;;;;;;;;;;;1.74;85.33;101193.06;4992473;28;19918;-87
2022/01/25 15:53:10;;;;;;;;;;;;;;;1.65;85.38;101185.09;4991290;28;19921;-85
2022/01/25 15:55:35;;;;;;;;;;;;;;;1.66;85.17;101179.91;4991219;28;20381;-84
2022/01/25 15:58:01;;;;;;;;;;;;;;;1.62;85.21;101176.34;4992322;28;19972;-86
2022/01/25 16:00:26;;;;;;;;;;;;;;;1.69;85.34;101181.66;4991159;28;19925;-84
2022/01/25 16:02:51;;;;;;;;;;;;;;;1.64;85.24;101171.16;4990991;28;19949;-86
2022/01/25 16:05:19;;;;;;;;;;;;;;;1.77;85.37;101178.34;4990396;28;19918;-86
2022/01/25 16:07:44;;;;;;;;;;;;;;;1.60;85.10;101188.50;4991047;28;19914;-85
2022/01/25 16:10:12;;;;;;;;;;;;;;;1.60;84.86;101180.69;4992467;28;19929;-85
2022/01/25 16:12:37;;;;;;;;;;;;;;;1.60;84.91;101185.91;4996397;28;20024;-85
2022/01/25 16:15:02;;;;;;;;;;;;;;;1.56;84.73;101193.66;4994861;28;20153;-85
2022/01/25 16:17:28;;;;;;;;;;;;;;;1.59;84.64;101189.34;4995138;28;19917;-83
2022/01/25 16:19:53;;;;;;;;;;;;;;;1.58;84.35;101191.94;4994808;28;19922;-87
2022/01/25 16:22:18;;;;;;;;;;;;;;;1.55;84.70;101182.34;4995963;28;20020;-87
2022/01/25 16:24:44;;;;;;;;;;;;;;;1.53;84.62;101188.38;4994721;28;19926;-88
2022/01/25 16:27:09;;;;;;;;;;;;;;;1.51;84.76;101187.50;4995563;28;19981;-86
2022/01/25 16:29:36;;;;;;;;;;;;;;;1.59;84.54;101191.97;4994495;28;20008;-86
2022/01/25 16:32:02;;;;;;;;;;;;;;;1.51;84.24;101183.13;4966327;28;19953;-86
2022/01/25 16:34:27;;;;;;;;;;;;;;;1.56;84.18;101186.69;4985424;28;20366;-85
2022/01/25 16:36:52;;;;;;;;;;;;;;;1.54;84.01;101179.69;4986172;28;19980;-85
2022/01/25 16:39:18;;;;;;;;;;;;;;;1.49;84.10;101166.56;4986151;28;19925;-86
2022/01/25 16:41:44;;;;;;;;;;;;;;;1.53;84.19;101175.31;4967703;28;19926;-86
2022/01/25 16:44:10;;;;;;;;;;;;;;;1.49;83.97;101173.53;4984334;28;19922;-86
2022/01/25 16:46:37;;;;;;;;;;;;;;;1.48;83.77;101174.38;4982864;28;19930;-86
2022/01/25 16:49:02;;;;;;;;;;;;;;;1.43;83.69;101184.75;4986096;28;19925;-86
2022/01/25 16:51:27;;;;;;;;;;;;;;;1.47;83.54;101189.19;4985983;28;20447;-87
2022/01/25 16:53:52;;;;;;;;;;;;;;;1.51;83.24;101180.53;4985434;28;19928;-86
2022/01/25 16:56:18;;;;;;;;;;;;;;;1.37;83.23;101174.19;4985708;28;20436;-86
2022/01/25 16:58:44;;;;;;;;;;;;;;;1.40;83.46;101180.34;4984646;28;19926;-87
2022/01/25 17:01:10;;;;;;;;;;;;;;;1.41;83.34;101187.31;4967430;28;19922;-86
2022/01/25 17:03:36;;;;;;;;;;;;;;;1.45;83.10;101186.53;4985383;28;20241;-86
2022/01/25 17:06:01;;;;;;;;;;;;;;;1.44;83.34;101184.78;4985934;28;20416;-85
2022/01/25 17:08:27;;;;;;;;;;;;;;;1.46;83.26;101184.78;4984577;28;19926;-86
2022/01/25 17:10:52;;;;;;;;;;;;;;;1.44;83.22;101178.69;4966896;28;19930;-86
2022/01/25 17:13:18;;;;;;;;;;;;;;;1.32;83.16;101187.16;4963185;28;20392;-85
2022/01/25 17:15:45;;;;;;;;;;;;;;;1.47;83.06;101183.94;4982004;28;19922;-87
2022/01/25 17:18:10;;;;;;;;;;;;;;;1.40;82.84;101187.31;4982640;28;20444;-86
2022/01/25 17:20:35;;;;;;;;;;;;;;;1.35;82.72;101196.78;4978210;28;19926;-87
2022/01/25 17:23:01;;;;;;;;;;;;;;;1.34;82.69;101197.63;4981450;28;20336;-87
2022/01/25 17:25:26;;;;;;;;;;;;;;;1.32;82.93;101200.22;4966960;28;19953;-87
2022/01/25 17:27:51;;;;;;;;;;;;;;;1.27;82.81;101204.50;4965171;28;19950;-86
2022/01/25 17:30:17;;;;;;;;;;;;;;;1.29;82.78;101207.13;4986190;28;19968;-85
2022/01/25 17:32:42;;;;;;;;;;;;;;;1.26;82.57;101200.09;4992506;28;19921;-86
2022/01/25 17:35:08;;;;;;;;;;;;;;;1.42;82.53;101211.72;4993722;28;19917;-85
2022/01/25 17:37:33;;;;;;;;;;;;;;;1.29;82.36;101209.75;4993885;28;19924;-86
2022/01/25 17:40:02;;;;;;;;;;;;;;;1.31;82.57;101210.63;4975466;28;20583;-86
2022/01/25 17:42:27;;;;;;;;;;;;;;;1.24;82.47;101213.13;4993466;28;19925;-86
2022/01/25 17:44:52;;;;;;;;;;;;;;;1.30;82.28;101215.00;4975176;28;19922;-86
2022/01/25 17:47:18;;;;;;;;;;;;;;;1.28;81.98;101219.31;4992236;28;19926;-87
2022/01/25 17:49:44;;;;;;;;;;;;;;;1.27;82.09;101214.94;4993773;28;19917;-87
2022/01/25 17:52:12;;;;;;;;;;;;;;;1.24;82.09;101218.34;4975969;28;19928;-85
2022/01/25 17:54:37;;;;;;;;;;;;;;;1.26;82.04;101221.91;4993020;28;19918;-85
2022/01/25 17:57:03;;;;;;;;;;;;;;;1.25;81.93;101227.97;4992344;28;19922;-85
2022/01/25 17:59:31;;;;;;;;;;;;;;;1.24;81.67;101218.34;4993322;28;19926;-86
2022/01/25 18:01:59;;;;;;;;;;;;;;;1.25;81.55;101225.34;4992471;28;20009;-87
2022/01/25 18:04:24;;;;;;;;;;;;;;;1.32;81.43;101220.25;4975611;28;20270;-86
2022/01/25 18:06:50;;;;;;;;;;;;;;;1.30;81.28;101224.56;4975266;28;20001;-87
2022/01/25 18:09:15;;;;;;;;;;;;;;;1.27;81.23;101222.78;4974452;28;19981;-87
2022/01/25 18:11:41;;;;;;;;;;;;;;;1.28;81.45;101214.09;4992347;28;19962;-87
2022/01/25 18:14:07;;;;;;;;;;;;;;;1.31;81.43;101216.75;4975116;28;20387;-88
2022/01/25 18:16:33;;;;;;;;;;;;;;;1.30;81.31;101212.38;4991554;28;19984;-87
2022/01/25 18:18:59;;;;;;;;;;;;;;;1.29;81.21;101210.63;4992307;28;20005;-87
2022/01/25 18:21:24;;;;;;;;;;;;;;;1.29;81.09;101214.97;4991773;28;19922;-87
2022/01/25 18:24:02;;;;;;;;;;;;;;;1.29;81.05;101209.75;4974767;28;19952;-86
2022/01/25 18:26:43;;;;;;;;;;;;;;;1.25;80.91;101209.69;4992262;28;19930;-86
2022/01/25 18:29:09;;;;;;;;;;;;;;;1.26;80.70;101211.47;4973033;28;19922;-86
2022/01/25 18:31:39;;;;;;;;;;;;;;;1.29;80.75;101204.53;4972943;28;19926;-86
2022/01/25 18:34:05;;;;;;;;;;;;;;;1.24;80.48;101209.66;4992093;28;20007;-85
2022/01/25 18:36:30;;;;;;;;;;;;;;;1.32;80.52;101204.56;4973742;28;20028;-87
2022/01/25 18:39:00;;;;;;;;;;;;;;;1.26;80.63;101206.22;4991897;28;20019;-88
2022/01/25 18:41:26;;;;;;;;;;;;;;;1.29;80.55;101205.38;4974700;28;19918;-87
2022/01/25 18:43:51;;;;;;;;;;;;;;;1.34;80.54;101208.09;4974881;28;19933;-85
2022/01/25 18:46:16;;;;;;;;;;;;;;;1.34;80.17;101205.47;4990761;28;20266;-88
2022/01/25 18:48:42;;;;;;;;;;;;;;;1.22;80.04;101204.41;4992279;28;19925;-86
2022/01/25 18:51:11;;;;;;;;;;;;;;;1.30;79.98;101201.94;4974457;28;20000;-87
2022/01/25 18:53:36;;;;;;;;;;;;;;;1.27;79.80;101197.53;4990768;28;19921;-86
2022/01/25 18:56:02;;;;;;;;;;;;;;;1.30;79.69;101195.84;4992026;28;20555;-85
2022/01/25 18:58:27;;;;;;;;;;;;;;;1.25;79.89;101199.25;4991841;28;19976;-84
2022/01/25 19:00:54;;;;;;;;;;;;;;;1.32;79.88;101199.34;4972436;28;19995;-88
2022/01/25 19:03:19;;;;;;;;;;;;;;;1.29;79.76;101196.69;4989778;28;19929;-87
2022/01/25 19:05:45;;;;;;;;;;;;;;;1.34;79.67;101192.41;4992401;28;19918;-87
2022/01/25 19:08:10;;;;;;;;;;;;;;;1.24;79.48;101200.09;4973581;28;20296;-87
2022/01/25 19:10:36;;;;;;;;;;;;;;;1.27;79.45;101191.44;4973302;28;20033;-86
2022/01/25 19:13:01;;;;;;;;;;;;;;;1.19;79.38;101196.50;4991196;28;19926;-86
2022/01/25 19:15:27;;;;;;;;;;;;;;;1.18;79.45;101197.38;4974442;28;19929;-85
2022/01/25 19:17:53;;;;;;;;;;;;;;;1.16;79.59;101198.19;4972489;28;19922;-85
2022/01/25 19:20:18;;;;;;;;;;;;;;;1.17;79.55;101203.44;4991176;28;20281;-86
2022/01/25 19:22:43;;;;;;;;;;;;;;;1.18;79.70;101200.00;4972796;28;19930;-85
2022/01/25 19:25:10;;;;;;;;;;;;;;;1.13;79.63;101193.78;4973304;28;19949;-87
2022/01/25 19:27:36;;;;;;;;;;;;;;;1.14;79.48;101194.69;4991168;28;20460;-86
2022/01/25 19:30:03;;;;;;;;;;;;;;;1.17;79.33;101190.41;4974997;28;20012;-87
2022/01/25 19:32:28;;;;;;;;;;;;;;;1.14;79.19;101198.16;4988949;28;19921;-85
2022/01/25 19:34:54;;;;;;;;;;;;;;;1.16;79.20;101195.59;4989087;28;19933;-85
2022/01/25 19:37:22;;;;;;;;;;;;;;;1.17;79.25;101207.81;4989879;28;19922;-85
2022/01/25 19:39:49;;;;;;;;;;;;;;;1.16;79.02;101192.97;4991901;28;19917;-86
2022/01/25 19:42:15;;;;;;;;;;;;;;;1.15;79.17;101197.34;4990618;28;20289;-88
2022/01/25 19:44:41;;;;;;;;;;;;;;;1.16;79.11;101191.25;4991676;28;19922;-85
2022/01/25 19:47:07;;;;;;;;;;;;;;;1.17;78.85;101194.75;4989703;28;20352;-87
2022/01/25 19:49:32;;;;;;;;;;;;;;;1.15;78.74;101202.56;4989115;28;19921;-87
2022/01/25 19:52:05;;;;;;;;;;;;;;;1.16;78.58;101201.69;4990556;28;20396;-86
2022/01/25 19:54:34;;;;;;;;;;;;;;;1.16;78.63;101204.28;4990348;28;19929;-87
2022/01/25 19:57:05;;;;;;;;;;;;;;;1.19;78.68;101204.34;4989265;28;19925;-86
2022/01/25 19:59:31;;;;;;;;;;;;;;;1.20;78.63;101200.91;4990345;28;20400;-86
2022/01/25 20:01:57;;;;;;;;;;;;;;;1.21;78.59;101200.06;4987273;28;19925;-87
2022/01/25 20:04:22;;;;;;;;;;;;;;;1.20;78.54;101205.25;4988832;28;19976;-85
2022/01/25 20:06:50;;;;;;;;;;;;;;;1.22;78.39;101204.41;4989839;28;19933;-86
2022/01/25 20:09:16;;;;;;;;;;;;;;;1.21;78.19;101204.38;4989684;28;19922;-85
2022/01/25 20:11:41;;;;;;;;;;;;;;;1.20;77.94;101206.13;4991320;28;20408;-85
2022/01/25 20:14:06;;;;;;;;;;;;;;;1.22;77.87;101203.53;4990943;28;19922;-87
2022/01/25 20:16:35;;;;;;;;;;;;;;;1.23;77.93;101203.56;4988583;28;19921;-87
2022/01/25 20:19:02;;;;;;;;;;;;;;;1.22;77.80;101201.78;4991118;28;19941;-86
2022/01/25 20:21:39;;;;;;;;;;;;;;;1.23;77.60;101211.41;4990117;28;19925;-87
2022/01/25 20:24:20;;;;;;;;;;;;;;;1.23;77.37;101211.41;4989408;28;19928;-86
2022/01/25 20:29:35;;;;;;;;;;;;;;;1.28;77.19;101208.88;4990739;28;19922;-87
2022/01/25 20:32:01;;;;;;;;;;;;;;;1.25;77.06;101204.47;4988667;28;19925;-87
2022/01/25 20:34:26;;;;;;;;;;;;;;;1.28;76.93;101203.66;4990430;28;19925;-86
2022/01/25 20:36:53;;;;;;;;;;;;;;;1.27;76.99;101202.75;4990369;28;19926;-86
2022/01/25 20:39:18;;;;;;;;;;;;;;;1.30;77.07;101201.06;4989252;28;19922;-88
2022/01/25 20:41:45;;;;;;;;;;;;;;;1.32;77.00;101204.56;4972925;28;20274;-89
2022/01/25 20:44:11;;;;;;;;;;;;;;;1.31;77.06;101198.47;4991079;28;19925;-86
2022/01/25 20:46:36;;;;;;;;;;;;;;;1.33;76.95;101204.59;4988824;28;19936;-86
2022/01/25 20:49:02;;;;;;;;;;;;;;;1.32;76.78;101205.44;4990417;28;20369;-86
2022/01/25 20:51:28;;;;;;;;;;;;;;;1.37;76.61;101197.69;4990428;28;19925;-85
2022/01/25 20:53:53;;;;;;;;;;;;;;;1.33;76.31;101195.91;4991159;28;19918;-85
2022/01/25 20:56:20;;;;;;;;;;;;;;;1.36;76.24;101194.22;4991088;28;20428;-87
2022/01/25 20:58:49;;;;;;;;;;;;;;;1.37;76.09;101195.09;4993086;28;19922;-86
2022/01/25 21:01:16;;;;;;;;;;;;;;;1.37;76.11;101198.59;4993056;28;20756;-87
2022/01/25 21:04:06;;;;;;;;;;;;;;;1.38;75.73;101199.47;4994837;28;19932;-85
2022/01/25 21:06:42;;;;;;;;;;;;;;;1.41;75.63;101194.28;4992810;28;19954;-86
2022/01/25 21:09:14;;;;;;;;;;;;;;;1.38;75.37;101192.50;4975907;28;19922;-86
2022/01/25 21:11:43;;;;;;;;;;;;;;;1.45;75.44;101194.38;4976502;28;19918;-88
2022/01/25 21:14:09;;;;;;;;;;;;;;;1.46;75.36;101192.63;4993757;28;19922;-87
2022/01/25 21:16:37;;;;;;;;;;;;;;;1.41;75.17;101203.00;4994017;28;19973;-85
2022/01/25 21:19:03;;;;;;;;;;;;;;;1.41;75.17;101203.00;4993667;28;19928;-86
2022/01/25 21:21:28;;;;;;;;;;;;;;;1.47;75.10;101210.06;4976697;28;19971;-87
2022/01/25 21:23:55;;;;;;;;;;;;;;;1.46;75.21;101205.69;4976839;28;19922;-88
2022/01/25 21:26:23;;;;;;;;;;;;;;;1.47;75.09;101214.41;4994179;28;19991;-85
2022/01/25 21:28:49;;;;;;;;;;;;;;;1.48;75.10;101209.19;4975759;28;20285;-88
2022/01/25 21:31:18;;;;;;;;;;;;;;;1.46;74.89;101210.91;4993047;28;19926;-88
2022/01/25 21:33:44;;;;;;;;;;;;;;;1.48;74.89;101211.81;4975902;28;19937;-86
2022/01/25 21:36:09;;;;;;;;;;;;;;;1.49;74.84;101208.38;4993015;28;19922;-86
2022/01/25 21:38:35;;;;;;;;;;;;;;;1.47;74.75;101210.06;4976296;28;19932;-88
2022/01/25 21:41:00;;;;;;;;;;;;;;;1.54;74.66;101206.69;4994405;28;19917;-87
2022/01/25 21:43:25;;;;;;;;;;;;;;;1.50;74.52;101204.91;4992456;28;19955;-85
2022/01/25 21:45:51;;;;;;;;;;;;;;;1.50;74.22;101209.22;4975933;28;19957;-85
2022/01/25 21:48:18;;;;;;;;;;;;;;;1.53;74.34;101209.28;4975535;28;19918;-88
2022/01/25 21:50:43;;;;;;;;;;;;;;;1.49;74.17;101208.38;4993172;28;19929;-85
2022/01/25 21:53:08;;;;;;;;;;;;;;;1.52;73.89;101200.56;4976236;28;19922;-86
2022/01/25 21:55:36;;;;;;;;;;;;;;;1.54;74.07;101188.41;4976539;28;20000;-85
2022/01/25 21:58:01;;;;;;;;;;;;;;;1.57;73.84;101185.84;4976104;28;20388;-86
2022/01/25 22:00:27;;;;;;;;;;;;;;;1.55;73.80;101190.19;4976563;28;19929;-86
2022/01/25 22:02:57;;;;;;;;;;;;;;;1.55;73.77;101192.78;4974180;28;19968;-85
2022/01/25 22:05:23;;;;;;;;;;;;;;;1.57;73.84;101198.91;4993194;28;19922;-85
2022/01/25 22:07:51;;;;;;;;;;;;;;;1.57;73.67;101200.66;4993866;28;20436;-86
2022/01/25 22:10:22;;;;;;;;;;;;;;;1.59;73.57;101197.19;4975501;28;19925;-88
2022/01/25 22:12:51;;;;;;;;;;;;;;;1.57;73.38;101195.44;4976299;28;19922;-88
